sensor_id;sensor_type;location;lat;lon;timestamp;P1;durP1;ratioP1;P2;durP2;ratioP2
3745;SDS011;1888;49.890;10.884;2022-07-18T00:01:54;11.90;;;11.70;;
3745;SDS011;1888;49.890;10.884;2022-07-18T00:04:21;12.00;;;11.80;;
3745;SDS011;1888;49.890;10.884;2022-07-18T00:06:48;12.03;;;11.83;;
3745;SDS011;1888;49.890;10.884;2022-07-18T00:09:15;11.60;;;11.40;;
3745;SDS011;1888;49.890;10.884;2022-07-18T00:11:43;11.80;;;11.60;;
3745;SDS011;1888;49.890;10.884;2022-07-18T00:14:12;11.50;;;11.30;;
3745;SDS011;1888;49.890;10.884;2022-07-18T00:16:39;12.30;;;12.10;;
3745;SDS011;1888;49.890;10.884;2022-07-18T00:19:06;11.70;;;11.50;;
3745;SDS011;1888;49.890;10.884;2022-07-18T00:21:33;12.00;;;11.80;;
3745;SDS011;1888;49.890;10.884;2022-07-18T00:24:00;11.70;;;11.50;;
3745;SDS011;1888;49.890;10.884;2022-07-18T00:26:28;11.77;;;11.57;;
3745;SDS011;1888;49.890;10.884;2022-07-18T00:28:55;11.57;;;11.37;;
3745;SDS011;1888;49.890;10.884;2022-07-18T00:31:23;11.50;;;11.30;;
3745;SDS011;1888;49.890;10.884;2022-07-18T00:33:50;11.60;;;11.40;;
3745;SDS011;1888;49.890;10.884;2022-07-18T00:36:19;11.83;;;11.63;;
3745;SDS011;1888;49.890;10.884;2022-07-18T00:38:46;12.00;;;11.80;;
3745;SDS011;1888;49.890;10.884;2022-07-18T00:41:14;11.60;;;11.40;;
3745;SDS011;1888;49.890;10.884;2022-07-18T00:43:41;11.93;;;11.73;;
3745;SDS011;1888;49.890;10.884;2022-07-18T00:46:08;12.13;;;11.93;;
3745;SDS011;1888;49.890;10.884;2022-07-18T00:48:37;12.20;;;12.00;;
3745;SDS011;1888;49.890;10.884;2022-07-18T00:51:05;12.20;;;12.00;;
3745;SDS011;1888;49.890;10.884;2022-07-18T00:53:32;12.50;;;12.20;;
3745;SDS011;1888;49.890;10.884;2022-07-18T00:55:59;11.93;;;11.73;;
3745;SDS011;1888;49.890;10.884;2022-07-18T00:58:27;12.10;;;11.90;;
3745;SDS011;1888;49.890;10.884;2022-07-18T01:00:55;11.73;;;11.53;;
3745;SDS011;1888;49.890;10.884;2022-07-18T01:03:41;11.87;;;11.67;;
3745;SDS011;1888;49.890;10.884;2022-07-18T01:06:09;11.93;;;11.73;;
3745;SDS011;1888;49.890;10.884;2022-07-18T01:08:36;11.93;;;11.73;;
3745;SDS011;1888;49.890;10.884;2022-07-18T01:11:04;11.73;;;11.53;;
3745;SDS011;1888;49.890;10.884;2022-07-18T01:13:32;12.10;;;11.90;;
3745;SDS011;1888;49.890;10.884;2022-07-18T01:15:59;12.00;;;11.80;;
3745;SDS011;1888;49.890;10.884;2022-07-18T01:18:27;11.83;;;11.63;;
3745;SDS011;1888;49.890;10.884;2022-07-18T01:20:55;12.17;;;11.97;;
3745;SDS011;1888;49.890;10.884;2022-07-18T01:23:24;11.63;;;11.43;;
3745;SDS011;1888;49.890;10.884;2022-07-18T01:25:51;11.97;;;11.77;;
3745;SDS011;1888;49.890;10.884;2022-07-18T01:28:18;11.47;;;11.27;;
3745;SDS011;1888;49.890;10.884;2022-07-18T01:30:45;12.10;;;11.90;;
3745;SDS011;1888;49.890;10.884;2022-07-18T01:33:12;11.87;;;11.67;;
3745;SDS011;1888;49.890;10.884;2022-07-18T01:35:39;11.90;;;11.70;;
3745;SDS011;1888;49.890;10.884;2022-07-18T01:38:08;11.63;;;11.43;;
3745;SDS011;1888;49.890;10.884;2022-07-18T01:40:35;12.03;;;11.83;;
3745;SDS011;1888;49.890;10.884;2022-07-18T01:43:02;11.70;;;11.50;;
3745;SDS011;1888;49.890;10.884;2022-07-18T01:45:31;11.57;;;11.37;;
3745;SDS011;1888;49.890;10.884;2022-07-18T01:47:59;12.20;;;12.00;;
3745;SDS011;1888;49.890;10.884;2022-07-18T01:50:27;11.97;;;11.77;;
3745;SDS011;1888;49.890;10.884;2022-07-18T01:52:54;11.83;;;11.63;;
3745;SDS011;1888;49.890;10.884;2022-07-18T01:55:22;11.70;;;11.50;;
3745;SDS011;1888;49.890;10.884;2022-07-18T01:57:50;11.93;;;11.73;;
3745;SDS011;1888;49.890;10.884;2022-07-18T02:00:17;11.57;;;11.37;;
3745;SDS011;1888;49.890;10.884;2022-07-18T02:02:44;12.00;;;11.80;;
3745;SDS011;1888;49.890;10.884;2022-07-18T02:05:11;12.07;;;11.87;;
3745;SDS011;1888;49.890;10.884;2022-07-18T02:07:39;11.60;;;11.40;;
3745;SDS011;1888;49.890;10.884;2022-07-18T02:10:07;11.93;;;11.73;;
3745;SDS011;1888;49.890;10.884;2022-07-18T02:12:36;12.10;;;11.90;;
3745;SDS011;1888;49.890;10.884;2022-07-18T02:15:03;12.10;;;11.90;;
3745;SDS011;1888;49.890;10.884;2022-07-18T02:17:31;11.63;;;11.43;;
3745;SDS011;1888;49.890;10.884;2022-07-18T02:19:58;11.87;;;11.67;;
3745;SDS011;1888;49.890;10.884;2022-07-18T02:22:26;12.20;;;12.00;;
3745;SDS011;1888;49.890;10.884;2022-07-18T02:24:53;12.00;;;11.80;;
3745;SDS011;1888;49.890;10.884;2022-07-18T02:27:21;11.77;;;11.57;;
3745;SDS011;1888;49.890;10.884;2022-07-18T02:29:50;11.73;;;11.53;;
3745;SDS011;1888;49.890;10.884;2022-07-18T02:32:17;11.97;;;11.77;;
3745;SDS011;1888;49.890;10.884;2022-07-18T02:34:44;12.00;;;11.80;;
3745;SDS011;1888;49.890;10.884;2022-07-18T02:37:12;11.97;;;11.77;;
3745;SDS011;1888;49.890;10.884;2022-07-18T02:39:40;11.80;;;11.60;;
3745;SDS011;1888;49.890;10.884;2022-07-18T02:42:07;11.67;;;11.47;;
3745;SDS011;1888;49.890;10.884;2022-07-18T02:44:34;11.90;;;11.70;;
3745;SDS011;1888;49.890;10.884;2022-07-18T02:47:03;11.73;;;11.53;;
3745;SDS011;1888;49.890;10.884;2022-07-18T02:49:30;11.90;;;11.70;;
3745;SDS011;1888;49.890;10.884;2022-07-18T02:51:59;11.90;;;11.70;;
3745;SDS011;1888;49.890;10.884;2022-07-18T02:54:26;11.60;;;11.40;;
3745;SDS011;1888;49.890;10.884;2022-07-18T02:56:54;12.10;;;11.90;;
3745;SDS011;1888;49.890;10.884;2022-07-18T02:59:21;11.97;;;11.77;;
3745;SDS011;1888;49.890;10.884;2022-07-18T03:01:48;12.07;;;11.87;;
3745;SDS011;1888;49.890;10.884;2022-07-18T03:04:17;12.00;;;11.80;;
3745;SDS011;1888;49.890;10.884;2022-07-18T03:06:44;12.23;;;12.03;;
3745;SDS011;1888;49.890;10.884;2022-07-18T03:09:12;11.80;;;11.60;;
3745;SDS011;1888;49.890;10.884;2022-07-18T03:11:40;11.83;;;11.63;;
3745;SDS011;1888;49.890;10.884;2022-07-18T03:14:09;12.00;;;11.80;;
3745;SDS011;1888;49.890;10.884;2022-07-18T03:16:36;12.20;;;12.00;;
3745;SDS011;1888;49.890;10.884;2022-07-18T03:19:04;12.10;;;11.90;;
3745;SDS011;1888;49.890;10.884;2022-07-18T03:21:32;12.20;;;12.00;;
3745;SDS011;1888;49.890;10.884;2022-07-18T03:23:59;11.63;;;11.43;;
3745;SDS011;1888;49.890;10.884;2022-07-18T03:26:26;11.40;;;11.20;;
3745;SDS011;1888;49.890;10.884;2022-07-18T03:28:53;12.10;;;11.90;;
3745;SDS011;1888;49.890;10.884;2022-07-18T03:31:21;12.37;;;12.10;;
3745;SDS011;1888;49.890;10.884;2022-07-18T03:33:48;11.60;;;11.40;;
3745;SDS011;1888;49.890;10.884;2022-07-18T03:36:16;11.57;;;11.37;;
3745;SDS011;1888;49.890;10.884;2022-07-18T03:38:44;11.93;;;11.73;;
3745;SDS011;1888;49.890;10.884;2022-07-18T03:41:12;12.00;;;11.80;;
3745;SDS011;1888;49.890;10.884;2022-07-18T03:43:39;12.00;;;11.80;;
3745;SDS011;1888;49.890;10.884;2022-07-18T03:46:09;12.00;;;11.80;;
3745;SDS011;1888;49.890;10.884;2022-07-18T03:48:36;12.00;;;11.80;;
3745;SDS011;1888;49.890;10.884;2022-07-18T03:51:04;12.20;;;12.00;;
3745;SDS011;1888;49.890;10.884;2022-07-18T03:53:32;12.00;;;11.80;;
3745;SDS011;1888;49.890;10.884;2022-07-18T03:56:00;11.93;;;11.73;;
3745;SDS011;1888;49.890;10.884;2022-07-18T03:58:27;12.17;;;11.97;;
3745;SDS011;1888;49.890;10.884;2022-07-18T04:00:54;11.87;;;11.67;;
3745;SDS011;1888;49.890;10.884;2022-07-18T04:03:21;11.70;;;11.50;;
3745;SDS011;1888;49.890;10.884;2022-07-18T04:05:50;11.77;;;11.57;;
3745;SDS011;1888;49.890;10.884;2022-07-18T04:08:17;11.93;;;11.73;;
3745;SDS011;1888;49.890;10.884;2022-07-18T04:10:44;12.47;;;12.17;;
3745;SDS011;1888;49.890;10.884;2022-07-18T04:13:13;11.80;;;11.60;;
3745;SDS011;1888;49.890;10.884;2022-07-18T04:15:40;11.63;;;11.43;;
3745;SDS011;1888;49.890;10.884;2022-07-18T04:18:08;12.13;;;11.93;;
3745;SDS011;1888;49.890;10.884;2022-07-18T04:20:35;12.33;;;12.10;;
3745;SDS011;1888;49.890;10.884;2022-07-18T04:23:04;12.30;;;12.10;;
3745;SDS011;1888;49.890;10.884;2022-07-18T04:25:33;12.00;;;11.80;;
3745;SDS011;1888;49.890;10.884;2022-07-18T04:28:01;12.20;;;12.00;;
3745;SDS011;1888;49.890;10.884;2022-07-18T04:30:30;11.97;;;11.77;;
3745;SDS011;1888;49.890;10.884;2022-07-18T04:32:57;11.87;;;11.67;;
3745;SDS011;1888;49.890;10.884;2022-07-18T04:35:24;12.20;;;12.00;;
3745;SDS011;1888;49.890;10.884;2022-07-18T04:37:51;11.73;;;11.53;;
3745;SDS011;1888;49.890;10.884;2022-07-18T04:40:18;11.60;;;11.40;;
3745;SDS011;1888;49.890;10.884;2022-07-18T04:42:45;11.70;;;11.50;;
3745;SDS011;1888;49.890;10.884;2022-07-18T04:45:13;11.90;;;11.70;;
3745;SDS011;1888;49.890;10.884;2022-07-18T04:47:42;11.93;;;11.73;;
3745;SDS011;1888;49.890;10.884;2022-07-18T04:50:09;12.20;;;12.00;;
3745;SDS011;1888;49.890;10.884;2022-07-18T04:52:37;12.10;;;11.90;;
3745;SDS011;1888;49.890;10.884;2022-07-18T04:55:04;11.77;;;11.57;;
3745;SDS011;1888;49.890;10.884;2022-07-18T04:57:32;11.60;;;11.40;;
3745;SDS011;1888;49.890;10.884;2022-07-18T04:59:59;11.77;;;11.57;;
3745;SDS011;1888;49.890;10.884;2022-07-18T05:02:26;11.57;;;11.37;;
3745;SDS011;1888;49.890;10.884;2022-07-18T05:04:55;11.50;;;11.30;;
3745;SDS011;1888;49.890;10.884;2022-07-18T05:07:22;11.30;;;11.10;;
3745;SDS011;1888;49.890;10.884;2022-07-18T05:09:49;11.60;;;11.40;;
3745;SDS011;1888;49.890;10.884;2022-07-18T05:12:16;11.90;;;11.70;;
3745;SDS011;1888;49.890;10.884;2022-07-18T05:14:43;11.97;;;11.77;;
3745;SDS011;1888;49.890;10.884;2022-07-18T05:17:13;11.60;;;11.40;;
3745;SDS011;1888;49.890;10.884;2022-07-18T05:19:41;11.47;;;11.27;;
3745;SDS011;1888;49.890;10.884;2022-07-18T05:22:09;11.60;;;11.40;;
3745;SDS011;1888;49.890;10.884;2022-07-18T05:24:36;11.57;;;11.37;;
3745;SDS011;1888;49.890;10.884;2022-07-18T05:27:03;11.80;;;11.60;;
3745;SDS011;1888;49.890;10.884;2022-07-18T05:29:30;11.70;;;11.50;;
3745;SDS011;1888;49.890;10.884;2022-07-18T05:31:57;11.53;;;11.33;;
3745;SDS011;1888;49.890;10.884;2022-07-18T05:34:25;11.23;;;11.03;;
3745;SDS011;1888;49.890;10.884;2022-07-18T05:36:52;11.30;;;11.10;;
3745;SDS011;1888;49.890;10.884;2022-07-18T05:39:21;11.67;;;11.47;;
3745;SDS011;1888;49.890;10.884;2022-07-18T05:41:48;11.37;;;11.17;;
3745;SDS011;1888;49.890;10.884;2022-07-18T05:44:15;11.97;;;11.77;;
3745;SDS011;1888;49.890;10.884;2022-07-18T05:46:45;11.67;;;11.47;;
3745;SDS011;1888;49.890;10.884;2022-07-18T05:49:12;11.60;;;11.40;;
3745;SDS011;1888;49.890;10.884;2022-07-18T05:51:39;11.60;;;11.40;;
3745;SDS011;1888;49.890;10.884;2022-07-18T05:54:06;11.10;;;10.90;;
3745;SDS011;1888;49.890;10.884;2022-07-18T05:56:34;10.97;;;10.77;;
3745;SDS011;1888;49.890;10.884;2022-07-18T05:59:01;11.50;;;11.30;;
3745;SDS011;1888;49.890;10.884;2022-07-18T06:01:29;11.27;;;11.07;;
3745;SDS011;1888;49.890;10.884;2022-07-18T06:03:56;11.50;;;11.30;;
3745;SDS011;1888;49.890;10.884;2022-07-18T06:06:23;11.30;;;11.10;;
3745;SDS011;1888;49.890;10.884;2022-07-18T06:08:50;11.17;;;10.97;;
3745;SDS011;1888;49.890;10.884;2022-07-18T06:11:17;11.23;;;11.03;;
3745;SDS011;1888;49.890;10.884;2022-07-18T06:13:46;11.50;;;11.30;;
3745;SDS011;1888;49.890;10.884;2022-07-18T06:16:13;11.40;;;11.20;;
3745;SDS011;1888;49.890;10.884;2022-07-18T06:18:40;11.00;;;10.80;;
3745;SDS011;1888;49.890;10.884;2022-07-18T06:21:07;11.13;;;10.93;;
3745;SDS011;1888;49.890;10.884;2022-07-18T06:23:34;11.47;;;11.27;;
3745;SDS011;1888;49.890;10.884;2022-07-18T06:26:02;11.60;;;11.40;;
3745;SDS011;1888;49.890;10.884;2022-07-18T06:28:29;11.43;;;11.23;;
3745;SDS011;1888;49.890;10.884;2022-07-18T06:30:57;11.30;;;11.10;;
3745;SDS011;1888;49.890;10.884;2022-07-18T06:33:24;11.50;;;11.30;;
3745;SDS011;1888;49.890;10.884;2022-07-18T06:35:54;11.50;;;11.30;;
3745;SDS011;1888;49.890;10.884;2022-07-18T06:38:21;11.37;;;11.17;;
3745;SDS011;1888;49.890;10.884;2022-07-18T06:40:48;11.73;;;11.53;;
3745;SDS011;1888;49.890;10.884;2022-07-18T06:43:15;11.17;;;10.97;;
3745;SDS011;1888;49.890;10.884;2022-07-18T06:45:44;11.40;;;11.20;;
3745;SDS011;1888;49.890;10.884;2022-07-18T06:48:14;11.30;;;11.10;;
3745;SDS011;1888;49.890;10.884;2022-07-18T06:50:41;11.33;;;11.13;;
3745;SDS011;1888;49.890;10.884;2022-07-18T06:53:08;11.00;;;10.80;;
3745;SDS011;1888;49.890;10.884;2022-07-18T06:55:35;10.83;;;10.63;;
3745;SDS011;1888;49.890;10.884;2022-07-18T06:58:02;10.67;;;10.47;;
3745;SDS011;1888;49.890;10.884;2022-07-18T07:00:29;11.00;;;10.80;;
3745;SDS011;1888;49.890;10.884;2022-07-18T07:02:56;11.10;;;10.90;;
3745;SDS011;1888;49.890;10.884;2022-07-18T07:05:25;10.80;;;10.60;;
3745;SDS011;1888;49.890;10.884;2022-07-18T07:07:52;10.73;;;10.53;;
3745;SDS011;1888;49.890;10.884;2022-07-18T07:10:19;10.90;;;10.70;;
3745;SDS011;1888;49.890;10.884;2022-07-18T07:12:47;11.20;;;11.00;;
3745;SDS011;1888;49.890;10.884;2022-07-18T07:15:15;10.43;;;10.33;;
3745;SDS011;1888;49.890;10.884;2022-07-18T07:17:42;11.03;;;10.83;;
3745;SDS011;1888;49.890;10.884;2022-07-18T07:20:10;11.00;;;10.80;;
3745;SDS011;1888;49.890;10.884;2022-07-18T07:22:42;11.37;;;11.17;;
3745;SDS011;1888;49.890;10.884;2022-07-18T07:25:10;11.10;;;10.90;;
3745;SDS011;1888;49.890;10.884;2022-07-18T07:27:37;10.73;;;10.53;;
3745;SDS011;1888;49.890;10.884;2022-07-18T07:30:05;10.60;;;10.43;;
3745;SDS011;1888;49.890;10.884;2022-07-18T07:32:33;11.37;;;11.17;;
3745;SDS011;1888;49.890;10.884;2022-07-18T07:35:01;11.20;;;11.00;;
3745;SDS011;1888;49.890;10.884;2022-07-18T07:37:28;11.17;;;10.97;;
3745;SDS011;1888;49.890;10.884;2022-07-18T07:39:57;11.17;;;10.97;;
3745;SDS011;1888;49.890;10.884;2022-07-18T07:42:24;11.27;;;11.07;;
3745;SDS011;1888;49.890;10.884;2022-07-18T07:44:51;11.40;;;11.20;;
3745;SDS011;1888;49.890;10.884;2022-07-18T07:47:18;11.00;;;10.80;;
3745;SDS011;1888;49.890;10.884;2022-07-18T07:49:45;11.57;;;11.37;;
3745;SDS011;1888;49.890;10.884;2022-07-18T07:52:12;11.30;;;11.10;;
3745;SDS011;1888;49.890;10.884;2022-07-18T07:54:41;11.50;;;11.30;;
3745;SDS011;1888;49.890;10.884;2022-07-18T07:57:11;11.27;;;11.07;;
3745;SDS011;1888;49.890;10.884;2022-07-18T07:59:38;11.30;;;11.10;;
3745;SDS011;1888;49.890;10.884;2022-07-18T08:02:05;11.23;;;11.03;;
3745;SDS011;1888;49.890;10.884;2022-07-18T08:04:32;11.50;;;11.30;;
3745;SDS011;1888;49.890;10.884;2022-07-18T08:07:00;11.50;;;11.30;;
3745;SDS011;1888;49.890;10.884;2022-07-18T08:09:27;10.43;;;10.33;;
3745;SDS011;1888;49.890;10.884;2022-07-18T08:11:54;11.20;;;11.00;;
3745;SDS011;1888;49.890;10.884;2022-07-18T08:14:22;11.30;;;11.10;;
3745;SDS011;1888;49.890;10.884;2022-07-18T08:16:49;11.07;;;10.87;;
3745;SDS011;1888;49.890;10.884;2022-07-18T08:19:16;11.20;;;11.00;;
3745;SDS011;1888;49.890;10.884;2022-07-18T08:21:44;11.00;;;10.80;;
3745;SDS011;1888;49.890;10.884;2022-07-18T08:24:12;11.50;;;11.30;;
3745;SDS011;1888;49.890;10.884;2022-07-18T08:26:39;10.95;;;10.75;;
3745;SDS011;1888;49.890;10.884;2022-07-18T08:29:07;11.25;;;11.05;;
3745;SDS011;1888;49.890;10.884;2022-07-18T08:31:35;11.20;;;11.00;;
3745;SDS011;1888;49.890;10.884;2022-07-18T08:34:02;11.00;;;10.80;;
3745;SDS011;1888;49.890;10.884;2022-07-18T08:36:29;11.20;;;11.00;;
3745;SDS011;1888;49.890;10.884;2022-07-18T08:38:56;11.40;;;11.20;;
3745;SDS011;1888;49.890;10.884;2022-07-18T08:41:24;10.85;;;10.65;;
3745;SDS011;1888;49.890;10.884;2022-07-18T08:43:51;11.05;;;10.85;;
3745;SDS011;1888;49.890;10.884;2022-07-18T08:46:18;11.30;;;11.10;;
3745;SDS011;1888;49.890;10.884;2022-07-18T08:48:48;11.00;;;10.80;;
3745;SDS011;1888;49.890;10.884;2022-07-18T08:51:17;11.20;;;11.00;;
3745;SDS011;1888;49.890;10.884;2022-07-18T08:53:45;11.25;;;11.05;;
3745;SDS011;1888;49.890;10.884;2022-07-18T08:56:13;11.35;;;11.15;;
3745;SDS011;1888;49.890;10.884;2022-07-18T08:58:40;11.23;;;11.02;;
3745;SDS011;1888;49.890;10.884;2022-07-18T09:01:07;11.45;;;11.25;;
3745;SDS011;1888;49.890;10.884;2022-07-18T09:03:34;11.18;;;10.98;;
3745;SDS011;1888;49.890;10.884;2022-07-18T09:06:03;11.30;;;11.10;;
3745;SDS011;1888;49.890;10.884;2022-07-18T09:08:31;11.10;;;10.90;;
3745;SDS011;1888;49.890;10.884;2022-07-18T09:10:59;10.98;;;10.77;;
3745;SDS011;1888;49.890;10.884;2022-07-18T09:13:30;10.98;;;10.77;;
3745;SDS011;1888;49.890;10.884;2022-07-18T09:16:02;11.32;;;11.13;;
3745;SDS011;1888;49.890;10.884;2022-07-18T09:18:30;10.85;;;10.65;;
3745;SDS011;1888;49.890;10.884;2022-07-18T09:20:58;11.00;;;10.80;;
3745;SDS011;1888;49.890;10.884;2022-07-18T09:23:28;11.13;;;10.93;;
3745;SDS011;1888;49.890;10.884;2022-07-18T09:25:56;11.20;;;11.00;;
3745;SDS011;1888;49.890;10.884;2022-07-18T09:28:24;10.90;;;10.70;;
3745;SDS011;1888;49.890;10.884;2022-07-18T09:30:51;11.20;;;11.00;;
3745;SDS011;1888;49.890;10.884;2022-07-18T09:33:18;11.20;;;11.00;;
3745;SDS011;1888;49.890;10.884;2022-07-18T09:35:47;11.30;;;11.10;;
3745;SDS011;1888;49.890;10.884;2022-07-18T09:38:15;11.30;;;11.10;;
3745;SDS011;1888;49.890;10.884;2022-07-18T09:40:44;11.10;;;10.90;;
3745;SDS011;1888;49.890;10.884;2022-07-18T09:43:11;11.05;;;10.85;;
3745;SDS011;1888;49.890;10.884;2022-07-18T09:45:39;11.20;;;11.00;;
3745;SDS011;1888;49.890;10.884;2022-07-18T09:48:07;10.77;;;10.57;;
3745;SDS011;1888;49.890;10.884;2022-07-18T09:50:35;11.05;;;10.85;;
3745;SDS011;1888;49.890;10.884;2022-07-18T09:53:04;11.40;;;11.20;;
3745;SDS011;1888;49.890;10.884;2022-07-18T09:55:32;11.40;;;11.20;;
3745;SDS011;1888;49.890;10.884;2022-07-18T09:58:01;11.20;;;11.00;;
3745;SDS011;1888;49.890;10.884;2022-07-18T10:00:30;11.40;;;11.20;;
3745;SDS011;1888;49.890;10.884;2022-07-18T10:02:58;11.25;;;11.05;;
3745;SDS011;1888;49.890;10.884;2022-07-18T10:05:28;11.25;;;11.05;;
3745;SDS011;1888;49.890;10.884;2022-07-18T10:07:56;11.20;;;11.00;;
3745;SDS011;1888;49.890;10.884;2022-07-18T10:10:23;10.95;;;10.75;;
3745;SDS011;1888;49.890;10.884;2022-07-18T10:12:53;11.02;;;10.82;;
3745;SDS011;1888;49.890;10.884;2022-07-18T10:15:23;10.95;;;10.75;;
3745;SDS011;1888;49.890;10.884;2022-07-18T10:17:50;10.90;;;10.70;;
3745;SDS011;1888;49.890;10.884;2022-07-18T10:20:18;11.20;;;11.00;;
3745;SDS011;1888;49.890;10.884;2022-07-18T10:22:51;11.00;;;10.80;;
3745;SDS011;1888;49.890;10.884;2022-07-18T10:25:21;11.20;;;11.00;;
3745;SDS011;1888;49.890;10.884;2022-07-18T10:27:49;11.25;;;11.05;;
3745;SDS011;1888;49.890;10.884;2022-07-18T10:30:17;11.30;;;11.10;;
3745;SDS011;1888;49.890;10.884;2022-07-18T10:32:46;11.40;;;11.20;;
3745;SDS011;1888;49.890;10.884;2022-07-18T10:35:15;10.95;;;10.75;;
3745;SDS011;1888;49.890;10.884;2022-07-18T10:37:44;11.20;;;11.00;;
3745;SDS011;1888;49.890;10.884;2022-07-18T10:40:20;11.20;;;11.00;;
3745;SDS011;1888;49.890;10.884;2022-07-18T10:45:41;11.40;;;11.20;;
3745;SDS011;1888;49.890;10.884;2022-07-18T10:51:04;11.07;;;10.88;;
3745;SDS011;1888;49.890;10.884;2022-07-18T10:53:54;11.20;;;11.00;;
3745;SDS011;1888;49.890;10.884;2022-07-18T10:56:23;11.07;;;10.88;;
3745;SDS011;1888;49.890;10.884;2022-07-18T10:59:14;11.00;;;10.80;;
3745;SDS011;1888;49.890;10.884;2022-07-18T11:01:46;11.07;;;10.88;;
3745;SDS011;1888;49.890;10.884;2022-07-18T11:04:24;10.80;;;10.60;;
3745;SDS011;1888;49.890;10.884;2022-07-18T11:06:53;11.10;;;10.90;;
3745;SDS011;1888;49.890;10.884;2022-07-18T11:12:22;10.80;;;10.60;;
3745;SDS011;1888;49.890;10.884;2022-07-18T11:15:00;10.35;;;10.25;;
3745;SDS011;1888;49.890;10.884;2022-07-18T11:20:24;10.80;;;10.60;;
3745;SDS011;1888;49.890;10.884;2022-07-18T11:22:53;10.80;;;10.60;;
3745;SDS011;1888;49.890;10.884;2022-07-18T11:25:22;10.20;;;10.10;;
3745;SDS011;1888;49.890;10.884;2022-07-18T11:27:51;10.35;;;10.25;;
3745;SDS011;1888;49.890;10.884;2022-07-18T11:30:18;10.85;;;10.65;;
3745;SDS011;1888;49.890;10.884;2022-07-18T11:32:45;10.35;;;10.25;;
3745;SDS011;1888;49.890;10.884;2022-07-18T11:35:14;10.57;;;10.38;;
3745;SDS011;1888;49.890;10.884;2022-07-18T11:37:46;10.90;;;10.70;;
3745;SDS011;1888;49.890;10.884;2022-07-18T11:40:15;11.00;;;10.80;;
3745;SDS011;1888;49.890;10.884;2022-07-18T11:42:43;11.13;;;10.93;;
3745;SDS011;1888;49.890;10.884;2022-07-18T11:45:12;11.05;;;10.85;;
3745;SDS011;1888;49.890;10.884;2022-07-18T11:47:40;10.95;;;10.75;;
3745;SDS011;1888;49.890;10.884;2022-07-18T11:50:11;11.10;;;10.90;;
3745;SDS011;1888;49.890;10.884;2022-07-18T11:52:39;11.05;;;10.85;;
3745;SDS011;1888;49.890;10.884;2022-07-18T11:55:06;10.90;;;10.70;;
3745;SDS011;1888;49.890;10.884;2022-07-18T11:57:35;10.75;;;10.55;;
3745;SDS011;1888;49.890;10.884;2022-07-18T12:00:13;10.98;;;10.77;;
3745;SDS011;1888;49.890;10.884;2022-07-18T12:02:41;11.40;;;11.20;;
3745;SDS011;1888;49.890;10.884;2022-07-18T12:05:08;11.27;;;11.07;;
3745;SDS011;1888;49.890;10.884;2022-07-18T12:07:35;11.20;;;11.00;;
3745;SDS011;1888;49.890;10.884;2022-07-18T12:10:16;11.30;;;11.10;;
3745;SDS011;1888;49.890;10.884;2022-07-18T12:12:45;11.25;;;11.05;;
3745;SDS011;1888;49.890;10.884;2022-07-18T12:15:15;11.10;;;10.90;;
3745;SDS011;1888;49.890;10.884;2022-07-18T12:17:43;11.20;;;11.00;;
3745;SDS011;1888;49.890;10.884;2022-07-18T12:20:11;11.02;;;10.82;;
3745;SDS011;1888;49.890;10.884;2022-07-18T12:28:21;11.02;;;10.82;;
3745;SDS011;1888;49.890;10.884;2022-07-18T12:30:51;11.50;;;11.30;;
3745;SDS011;1888;49.890;10.884;2022-07-18T12:33:18;11.70;;;11.50;;
3745;SDS011;1888;49.890;10.884;2022-07-18T12:35:45;11.40;;;11.20;;
3745;SDS011;1888;49.890;10.884;2022-07-18T12:38:13;11.68;;;11.48;;
3745;SDS011;1888;49.890;10.884;2022-07-18T12:40:42;11.45;;;11.25;;
3745;SDS011;1888;49.890;10.884;2022-07-18T12:43:12;11.40;;;11.20;;
3745;SDS011;1888;49.890;10.884;2022-07-18T12:45:41;10.80;;;10.60;;
3745;SDS011;1888;49.890;10.884;2022-07-18T12:48:09;11.38;;;11.18;;
3745;SDS011;1888;49.890;10.884;2022-07-18T12:50:36;11.50;;;11.30;;
3745;SDS011;1888;49.890;10.884;2022-07-18T12:53:04;11.50;;;11.30;;
3745;SDS011;1888;49.890;10.884;2022-07-18T12:55:34;11.48;;;11.27;;
3745;SDS011;1888;49.890;10.884;2022-07-18T12:58:03;11.43;;;11.23;;
3745;SDS011;1888;49.890;10.884;2022-07-18T13:00:31;11.90;;;11.70;;
3745;SDS011;1888;49.890;10.884;2022-07-18T13:03:00;11.50;;;11.30;;
3745;SDS011;1888;49.890;10.884;2022-07-18T13:05:28;11.93;;;11.73;;
3745;SDS011;1888;49.890;10.884;2022-07-18T13:07:55;11.50;;;11.30;;
3745;SDS011;1888;49.890;10.884;2022-07-18T13:10:22;11.80;;;11.60;;
3745;SDS011;1888;49.890;10.884;2022-07-18T13:12:49;11.90;;;11.70;;
3745;SDS011;1888;49.890;10.884;2022-07-18T13:15:16;11.90;;;11.70;;
3745;SDS011;1888;49.890;10.884;2022-07-18T13:17:45;11.37;;;11.17;;
3745;SDS011;1888;49.890;10.884;2022-07-18T13:20:15;11.30;;;11.10;;
3745;SDS011;1888;49.890;10.884;2022-07-18T13:22:42;11.70;;;11.50;;
3745;SDS011;1888;49.890;10.884;2022-07-18T13:25:09;11.70;;;11.50;;
3745;SDS011;1888;49.890;10.884;2022-07-18T13:27:39;11.60;;;11.40;;
3745;SDS011;1888;49.890;10.884;2022-07-18T13:30:07;12.03;;;11.83;;
3745;SDS011;1888;49.890;10.884;2022-07-18T13:32:36;11.47;;;11.27;;
3745;SDS011;1888;49.890;10.884;2022-07-18T13:35:09;11.50;;;11.30;;
3745;SDS011;1888;49.890;10.884;2022-07-18T13:37:38;11.57;;;11.37;;
3745;SDS011;1888;49.890;10.884;2022-07-18T13:40:06;11.43;;;11.23;;
3745;SDS011;1888;49.890;10.884;2022-07-18T13:42:35;11.73;;;11.53;;
3745;SDS011;1888;49.890;10.884;2022-07-18T13:45:04;11.47;;;11.27;;
3745;SDS011;1888;49.890;10.884;2022-07-18T13:47:31;11.07;;;10.87;;
3745;SDS011;1888;49.890;10.884;2022-07-18T13:49:59;11.43;;;11.23;;
3745;SDS011;1888;49.890;10.884;2022-07-18T13:52:29;11.70;;;11.50;;
3745;SDS011;1888;49.890;10.884;2022-07-18T13:54:57;11.30;;;11.10;;
3745;SDS011;1888;49.890;10.884;2022-07-18T13:57:25;11.60;;;11.40;;
3745;SDS011;1888;49.890;10.884;2022-07-18T13:59:59;11.60;;;11.40;;
3745;SDS011;1888;49.890;10.884;2022-07-18T14:02:27;11.50;;;11.30;;
3745;SDS011;1888;49.890;10.884;2022-07-18T14:04:57;11.53;;;11.33;;
3745;SDS011;1888;49.890;10.884;2022-07-18T14:07:24;12.20;;;12.00;;
3745;SDS011;1888;49.890;10.884;2022-07-18T14:09:51;11.57;;;11.37;;
3745;SDS011;1888;49.890;10.884;2022-07-18T14:12:20;11.93;;;11.73;;
3745;SDS011;1888;49.890;10.884;2022-07-18T14:14:50;11.67;;;11.47;;
3745;SDS011;1888;49.890;10.884;2022-07-18T14:17:18;11.90;;;11.70;;
3745;SDS011;1888;49.890;10.884;2022-07-18T14:19:47;11.50;;;11.30;;
3745;SDS011;1888;49.890;10.884;2022-07-18T14:22:17;11.63;;;11.43;;
3745;SDS011;1888;49.890;10.884;2022-07-18T14:24:44;11.40;;;11.20;;
3745;SDS011;1888;49.890;10.884;2022-07-18T14:27:11;11.53;;;11.33;;
3745;SDS011;1888;49.890;10.884;2022-07-18T14:29:41;11.50;;;11.30;;
3745;SDS011;1888;49.890;10.884;2022-07-18T14:32:10;11.67;;;11.47;;
3745;SDS011;1888;49.890;10.884;2022-07-18T14:34:39;11.17;;;10.97;;
3745;SDS011;1888;49.890;10.884;2022-07-18T14:37:07;11.30;;;11.10;;
3745;SDS011;1888;49.890;10.884;2022-07-18T14:39:34;11.40;;;11.20;;
3745;SDS011;1888;49.890;10.884;2022-07-18T14:42:04;11.40;;;11.20;;
3745;SDS011;1888;49.890;10.884;2022-07-18T14:44:31;11.70;;;11.50;;
3745;SDS011;1888;49.890;10.884;2022-07-18T14:46:59;11.80;;;11.60;;
3745;SDS011;1888;49.890;10.884;2022-07-18T14:49:27;11.60;;;11.40;;
3745;SDS011;1888;49.890;10.884;2022-07-18T14:51:54;11.40;;;11.20;;
3745;SDS011;1888;49.890;10.884;2022-07-18T14:54:25;11.70;;;11.50;;
3745;SDS011;1888;49.890;10.884;2022-07-18T14:56:52;11.43;;;11.23;;